Terminal Aerodrome Forecast
Issued by NWS

Home | Current Version | Previous Version | Text Only | Print | Product List | Glossary On
Versions: 1 2 3 4 5 6 7 8 9 10 11 12 13 14 15 16 17 18
000
FTPA31 PHFO 292338
TAFHTO
TAF
PHTO 292338Z 3000/3024 11010KT P6SM SCT025 BKN035 BKN060
     FM300600 23005KT P6SM VCSH SCT025 BKN040
      TEMPO 3014/3018 5SM -RA BKN025
     FM302000 12010KT P6SM VCSH SCT025 BKN035 BKN060=

USA.gov is the U.S. government's official web portal to all federal, state and local government web resources and services.